Time;durP1;ratioP1;P1;durP2;ratioP2;P2;SDS_P1;SDS_P2;PMS_P1;PMS_P2;Temp;Humidity;BMP_temperature;BMP_pressure;BME280_temperature;BME280_humidity;BME280_pressure;Samples;Min_cycle;Max_cycle;Signal;HPM_P1;HPM_P2
2023/10/15 00:01:06;;;;;;;;;;;;;;;6.81;100.00;100366.69;5022394;28;19920;-80
2023/10/15 00:03:33;;;;;;;;;;;;;;;6.73;100.00;100370.91;5014020;28;19920;-80
2023/10/15 00:05:59;;;;;;;;;;;;;;;6.81;100.00;100375.47;5007367;28;20008;-81
2023/10/15 00:08:24;;;;;;;;;;;;;;;6.85;100.00;100360.94;5006838;28;19936;-81
2023/10/15 00:10:50;;;;;;;;;;;;;;;6.96;100.00;100366.06;5006967;28;19994;-81
2023/10/15 00:13:15;;;;;;;;;;;;;;;7.05;100.00;100361.69;5006664;28;20019;-80
2023/10/15 00:15:40;;;;;;;;;;;;;;;7.16;100.00;100372.09;5006110;28;19918;-81
2023/10/15 00:18:09;;;;;;;;;;;;;;;7.07;100.00;100375.66;5010279;28;19963;-79
2023/10/15 00:20:35;;;;;;;;;;;;;;;7.07;100.00;100359.72;5012067;28;19961;-80
2023/10/15 00:23:04;;;;;;;;;;;;;;;7.03;100.00;100345.06;5005791;28;20333;-79
2023/10/15 00:25:37;;;;;;;;;;;;;;;7.00;100.00;100336.56;5005348;28;19920;-80
2023/10/15 00:28:09;;;;;;;;;;;;;;;7.01;100.00;100340.88;5006359;28;19914;-79
2023/10/15 00:30:34;;;;;;;;;;;;;;;6.86;100.00;100330.78;5007678;28;19922;-80
2023/10/15 00:33:03;;;;;;;;;;;;;;;6.94;100.00;100345.94;5005961;28;19960;-80
2023/10/15 00:35:33;;;;;;;;;;;;;;;6.84;100.00;100322.13;5019489;28;20003;-80
2023/10/15 00:37:58;;;;;;;;;;;;;;;6.57;100.00;100319.47;4993087;28;20005;-81
2023/10/15 00:40:25;;;;;;;;;;;;;;;6.60;100.00;100325.31;5002892;28;20059;-80
2023/10/15 00:42:51;;;;;;;;;;;;;;;6.53;100.00;100317.13;4991382;28;19913;-77
2023/10/15 00:45:17;;;;;;;;;;;;;;;6.53;100.00;100325.09;5019947;28;19924;-80
2023/10/15 00:47:44;;;;;;;;;;;;;;;6.64;100.00;100336.47;5008919;28;19917;-80
2023/10/15 00:50:09;;;;;;;;;;;;;;;6.59;100.00;100330.78;4995989;28;19982;-80
2023/10/15 00:52:42;;;;;;;;;;;;;;;6.61;100.00;100329.66;5019620;28;19963;-80
2023/10/15 00:55:10;;;;;;;;;;;;;;;6.76;100.00;100330.81;5009238;28;19940;-80
2023/10/15 00:57:41;;;;;;;;;;;;;;;6.67;100.00;100329.06;5018729;28;19948;-78
2023/10/15 01:00:37;;;;;;;;;;;;;;;6.78;100.00;100359.03;4988945;28;20273;-79
2023/10/15 01:02:56;;;;;;;;;;;;;;;6.86;100.00;100418.34;5004456;28;19961;-79
2023/10/15 01:05:24;;;;;;;;;;;;;;;7.07;100.00;100444.66;4999024;28;19961;-81
2023/10/15 01:07:51;;;;;;;;;;;;;;;6.75;100.00;100427.31;5016460;28;19910;-79
2023/10/15 01:10:33;;;;;;;;;;;;;;;6.78;100.00;100434.16;5002480;28;20384;-81
2023/10/15 01:13:10;;;;;;;;;;;;;;;7.02;100.00;100452.19;5003040;28;19923;-80
2023/10/15 01:15:41;;;;;;;;;;;;;;;7.02;100.00;100444.25;4994228;28;19917;-79
2023/10/15 01:18:07;;;;;;;;;;;;;;;6.79;100.00;100424.38;5020113;28;20365;-79
2023/10/15 01:20:35;;;;;;;;;;;;;;;6.85;100.00;100439.72;4993184;28;19955;-81
2023/10/15 01:23:01;;;;;;;;;;;;;;;6.76;100.00;100422.84;5020838;28;20442;-77
2023/10/15 01:25:26;;;;;;;;;;;;;;;6.73;100.00;100423.97;5001371;28;19913;-79
2023/10/15 01:27:58;;;;;;;;;;;;;;;6.66;100.00;100430.84;5018767;28;19999;-81
2023/10/15 01:30:24;;;;;;;;;;;;;;;6.62;100.00;100410.06;5000886;28;19917;-80
2023/10/15 01:32:50;;;;;;;;;;;;;;;6.58;100.00;100420.13;5018922;28;19910;-80
2023/10/15 01:35:15;;;;;;;;;;;;;;;6.54;100.00;100422.22;5009043;28;20370;-79
2023/10/15 01:37:57;;;;;;;;;;;;;;;6.61;100.00;100421.66;5019201;28;20343;-80
2023/10/15 01:40:40;;;;;;;;;;;;;;;6.57;100.00;100415.78;5001316;28;20372;-81
2023/10/15 01:43:12;;;;;;;;;;;;;;;6.55;100.00;100428.34;5001366;28;19921;-79
2023/10/15 01:45:38;;;;;;;;;;;;;;;6.50;100.00;100425.31;5001144;28;19984;-79
2023/10/15 01:48:05;;;;;;;;;;;;;;;6.58;100.00;100444.00;5005241;28;20004;-80
2023/10/15 01:50:41;;;;;;;;;;;;;;;6.48;100.00;100427.25;5001463;28;20407;-76
2023/10/15 01:53:06;;;;;;;;;;;;;;;6.63;100.00;100441.75;5019992;28;19917;-78
2023/10/15 01:55:35;;;;;;;;;;;;;;;6.43;100.00;100413.59;5001136;28;20391;-78
2023/10/15 01:58:01;;;;;;;;;;;;;;;6.66;100.00;100438.81;4987114;28;19914;-77
2023/10/15 02:00:43;;;;;;;;;;;;;;;6.66;100.00;100440.63;5017806;28;19940;-80
2023/10/15 02:03:12;;;;;;;;;;;;;;;6.59;100.00;100421.78;5004161;28;19922;-80
2023/10/15 02:05:41;;;;;;;;;;;;;;;6.65;100.00;100445.09;5015242;28;20365;-79
2023/10/15 02:08:23;;;;;;;;;;;;;;;6.75;100.00;100459.16;5011639;28;20284;-79
2023/10/15 02:10:48;;;;;;;;;;;;;;;6.69;100.00;100461.56;5001666;28;20419;-80
2023/10/15 02:13:16;;;;;;;;;;;;;;;6.73;100.00;100473.56;5006823;28;19921;-80
2023/10/15 02:15:41;;;;;;;;;;;;;;;6.70;100.00;100440.19;5020753;28;19988;-79
2023/10/15 02:18:29;;;;;;;;;;;;;;;6.81;100.00;100436.50;5003250;28;20418;-80
2023/10/15 02:23:20;;;;;;;;;;;;;;;6.60;100.00;100412.84;5002895;28;20011;-80
2023/10/15 02:26:07;;;;;;;;;;;;;;;6.80;100.00;100428.72;5017647;28;20025;-77
2023/10/15 02:28:32;;;;;;;;;;;;;;;6.80;100.00;100415.44;5001481;28;19917;-78
2023/10/15 02:33:38;;;;;;;;;;;;;;;6.49;100.00;100394.47;5004846;28;19914;-79
2023/10/15 02:36:07;;;;;;;;;;;;;;;6.49;100.00;100397.97;5002811;28;20400;-79
2023/10/15 02:38:37;;;;;;;;;;;;;;;6.69;100.00;100404.00;5003087;28;19916;-80
2023/10/15 02:43:28;;;;;;;;;;;;;;;6.35;100.00;100366.59;5000218;28;19920;-79
2023/10/15 02:45:53;;;;;;;;;;;;;;;6.33;100.00;100376.50;5006853;28;19917;-79
2023/10/15 02:48:22;;;;;;;;;;;;;;;6.31;100.00;100373.16;5004500;28;19909;-81
2023/10/15 02:51:00;;;;;;;;;;;;;;;6.44;100.00;100388.75;5020838;28;20292;-80
2023/10/15 02:53:26;;;;;;;;;;;;;;;6.33;100.00;100356.13;5008085;28;19917;-77
2023/10/15 02:55:52;;;;;;;;;;;;;;;6.41;100.00;100370.47;5016968;28;19924;-80
2023/10/15 02:58:17;;;;;;;;;;;;;;;6.34;100.00;100373.72;5005684;28;19909;-80
2023/10/15 03:00:43;;;;;;;;;;;;;;;6.23;100.00;100376.53;5019981;28;19917;-80
2023/10/15 03:03:09;;;;;;;;;;;;;;;6.37;100.00;100382.34;5008109;28;19965;-79
2023/10/15 03:05:40;;;;;;;;;;;;;;;6.41;100.00;100399.66;5022567;28;19937;-80
2023/10/15 03:08:06;;;;;;;;;;;;;;;6.37;100.00;100406.22;5007853;28;19924;-79
2023/10/15 03:13:28;;;;;;;;;;;;;;;6.51;100.00;100406.63;4969965;28;19914;-78
2023/10/15 03:15:57;;;;;;;;;;;;;;;6.39;100.00;100394.50;5007699;28;19992;-80
2023/10/15 03:18:23;;;;;;;;;;;;;;;6.36;100.00;100383.34;5003545;28;19916;-78
2023/10/15 03:21:00;;;;;;;;;;;;;;;6.22;100.00;100372.19;5020461;28;20324;-81
2023/10/15 03:23:25;;;;;;;;;;;;;;;6.36;100.00;100400.09;5019054;28;19921;-78
2023/10/15 03:25:57;;;;;;;;;;;;;;;6.41;100.00;100407.59;5004249;28;19971;-77
2023/10/15 03:28:24;;;;;;;;;;;;;;;6.41;100.00;100381.09;5018851;28;19917;-79
2023/10/15 03:30:49;;;;;;;;;;;;;;;6.39;100.00;100372.44;5004651;28;20001;-79
2023/10/15 03:33:16;;;;;;;;;;;;;;;6.54;100.00;100384.25;5020581;28;19917;-79
2023/10/15 03:35:45;;;;;;;;;;;;;;;6.52;100.00;100372.97;5019026;28;19918;-80
2023/10/15 03:38:14;;;;;;;;;;;;;;;6.54;100.00;100373.66;5005486;28;19913;-77
2023/10/15 03:40:46;;;;;;;;;;;;;;;6.66;100.00;100376.97;5001421;28;19914;-79
2023/10/15 03:43:21;;;;;;;;;;;;;;;6.70;100.00;100357.94;5010207;28;19917;-80
2023/10/15 03:45:53;;;;;;;;;;;;;;;6.49;100.00;100341.44;5007371;28;20356;-78
2023/10/15 03:48:21;;;;;;;;;;;;;;;6.49;100.00;100325.53;5015385;28;20012;-78
2023/10/15 03:50:56;;;;;;;;;;;;;;;6.45;100.00;100309.06;5002479;28;19914;-80
2023/10/15 03:53:30;;;;;;;;;;;;;;;6.43;100.00;100296.94;5005906;28;19913;-80
2023/10/15 03:56:01;;;;;;;;;;;;;;;6.27;100.00;100293.06;5002563;28;20383;-77
2023/10/15 03:58:26;;;;;;;;;;;;;;;6.48;100.00;100310.56;5025856;28;19917;-79
2023/10/15 04:01:01;;;;;;;;;;;;;;;6.45;100.00;100316.19;5008810;28;20117;-79
2023/10/15 04:03:28;;;;;;;;;;;;;;;6.41;100.00;100328.06;5003173;28;20377;-78
2023/10/15 04:06:00;;;;;;;;;;;;;;;6.36;100.00;100319.72;5001119;28;19917;-78
2023/10/15 04:08:26;;;;;;;;;;;;;;;6.26;100.00;100323.22;5001430;28;20300;-76
2023/10/15 04:10:57;;;;;;;;;;;;;;;6.34;100.00;100327.78;5004064;28;19916;-80
2023/10/15 04:13:22;;;;;;;;;;;;;;;6.26;100.00;100327.69;5003042;28;19920;-78
2023/10/15 04:15:49;;;;;;;;;;;;;;;6.25;100.00;100334.81;5005330;28;19917;-78
2023/10/15 04:18:14;;;;;;;;;;;;;;;6.18;100.00;100328.44;5006168;28;19923;-78
2023/10/15 04:20:42;;;;;;;;;;;;;;;6.09;100.00;100318.69;5006283;28;20028;-79
2023/10/15 04:23:12;;;;;;;;;;;;;;;6.18;100.00;100331.09;5006600;28;19920;-80
2023/10/15 04:25:37;;;;;;;;;;;;;;;6.10;100.00;100333.59;5003099;28;20409;-79
2023/10/15 04:28:10;;;;;;;;;;;;;;;6.19;100.00;100348.66;5003937;28;19941;-80
2023/10/15 04:30:38;;;;;;;;;;;;;;;6.24;100.00;100357.00;5004114;28;20014;-79
2023/10/15 04:33:09;;;;;;;;;;;;;;;6.14;100.00;100356.19;4992860;28;20000;-80
2023/10/15 04:35:37;;;;;;;;;;;;;;;6.22;100.00;100348.34;5000398;28;20286;-78
2023/10/15 04:38:06;;;;;;;;;;;;;;;6.22;100.00;100343.03;5019035;28;20208;-80
2023/10/15 04:40:39;;;;;;;;;;;;;;;6.28;100.00;100346.94;5003573;28;20300;-79
2023/10/15 04:43:04;;;;;;;;;;;;;;;6.26;100.00;100338.31;5003805;28;19921;-79
2023/10/15 04:48:01;;;;;;;;;;;;;;;6.29;100.00;100346.78;5003438;28;19913;-80
2023/10/15 04:50:35;;;;;;;;;;;;;;;6.32;100.00;100354.47;4989712;28;19921;-78
2023/10/15 04:53:13;;;;;;;;;;;;;;;6.22;100.00;100337.75;5018991;28;20389;-77
2023/10/15 04:55:38;;;;;;;;;;;;;;;6.20;100.00;100313.19;5016452;28;19913;-80
2023/10/15 04:58:04;;;;;;;;;;;;;;;6.38;100.00;100321.22;5005889;28;20059;-80
2023/10/15 05:00:30;;;;;;;;;;;;;;;6.40;100.00;100313.13;5000759;28;19913;-79
2023/10/15 05:02:55;;;;;;;;;;;;;;;6.29;100.00;100298.25;5001883;28;19924;-79
2023/10/15 05:05:20;;;;;;;;;;;;;;;6.45;100.00;100306.41;5002848;28;20415;-77
2023/10/15 05:07:46;;;;;;;;;;;;;;;6.42;100.00;100293.44;5006284;28;19917;-79
2023/10/15 05:10:11;;;;;;;;;;;;;;;6.39;100.00;100296.41;5002289;28;19909;-79
2023/10/15 05:12:37;;;;;;;;;;;;;;;6.27;100.00;100298.38;5002775;28;19953;-80
2023/10/15 05:15:03;;;;;;;;;;;;;;;6.31;100.00;100283.03;5002733;28;19932;-79
2023/10/15 05:17:31;;;;;;;;;;;;;;;6.29;100.00;100277.84;5000582;28;20380;-79
2023/10/15 05:19:56;;;;;;;;;;;;;;;6.19;100.00;100265.63;5000049;28;19992;-77
2023/10/15 05:22:21;;;;;;;;;;;;;;;6.18;100.00;100285.16;5001456;28;20003;-78
2023/10/15 05:24:47;;;;;;;;;;;;;;;6.31;100.00;100310.38;5016498;28;19922;-80
2023/10/15 05:27:12;;;;;;;;;;;;;;;6.23;100.00;100301.50;5005562;28;20293;-78
2023/10/15 05:29:38;;;;;;;;;;;;;;;6.27;100.00;100314.28;4998324;28;19920;-78
2023/10/15 05:32:03;;;;;;;;;;;;;;;6.27;100.00;100301.03;5005607;28;20208;-79
2023/10/15 05:34:29;;;;;;;;;;;;;;;6.37;100.00;100324.00;5000029;28;19999;-80
2023/10/15 05:36:54;;;;;;;;;;;;;;;6.29;100.00;100307.03;5001934;28;20387;-80
2023/10/15 05:39:20;;;;;;;;;;;;;;;6.16;100.00;100306.53;5002371;28;19914;-77
2023/10/15 05:41:45;;;;;;;;;;;;;;;6.19;100.00;100322.13;5000298;28;20482;-77
2023/10/15 05:44:10;;;;;;;;;;;;;;;6.25;100.00;100336.63;5008182;28;19921;-77
2023/10/15 05:46:36;;;;;;;;;;;;;;;6.21;100.00;100341.38;5000127;28;19913;-77
2023/10/15 05:49:01;;;;;;;;;;;;;;;6.15;100.00;100346.41;5001918;28;19913;-78
2023/10/15 05:51:27;;;;;;;;;;;;;;;6.12;100.00;100348.38;4999843;28;19909;-78
2023/10/15 05:53:53;;;;;;;;;;;;;;;6.12;100.00;100350.19;5016981;28;19913;-80
2023/10/15 05:56:18;;;;;;;;;;;;;;;6.09;100.00;100359.28;5001315;28;19913;-79
2023/10/15 05:58:44;;;;;;;;;;;;;;;6.32;100.00;100365.09;4999484;28;20442;-80
2023/10/15 06:01:09;;;;;;;;;;;;;;;6.17;100.00;100329.41;5001767;28;20228;-80
2023/10/15 06:03:35;;;;;;;;;;;;;;;6.28;100.00;100355.72;4999450;28;19928;-79
2023/10/15 06:06:01;;;;;;;;;;;;;;;6.18;100.00;100352.28;5004643;28;19924;-77
2023/10/15 06:08:28;;;;;;;;;;;;;;;6.38;100.00;100374.25;5000793;28;20016;-80
2023/10/15 06:10:53;;;;;;;;;;;;;;;6.42;100.00;100377.47;5003026;28;19929;-80
2023/10/15 06:13:18;;;;;;;;;;;;;;;6.29;100.00;100362.69;5001256;28;19986;-79
2023/10/15 06:15:43;;;;;;;;;;;;;;;6.23;100.00;100371.25;4998463;28;19914;-79
2023/10/15 06:18:09;;;;;;;;;;;;;;;6.37;100.00;100392.94;5005574;28;19917;-79
2023/10/15 06:20:34;;;;;;;;;;;;;;;6.62;100.00;100418.84;5003390;28;19918;-79
2023/10/15 06:23:03;;;;;;;;;;;;;;;6.86;100.00;100421.00;5020758;28;19917;-78
2023/10/15 06:25:29;;;;;;;;;;;;;;;6.65;100.00;100385.88;5002113;28;19909;-78
2023/10/15 06:27:55;;;;;;;;;;;;;;;6.88;100.00;100404.91;5008489;28;19916;-78
2023/10/15 06:30:20;;;;;;;;;;;;;;;6.87;100.00;100400.59;5005102;28;20289;-77
2023/10/15 06:32:49;;;;;;;;;;;;;;;6.74;100.00;100398.28;5008095;28;20000;-79
2023/10/15 06:35:18;;;;;;;;;;;;;;;6.67;100.00;100424.56;5005831;28;19917;-78
2023/10/15 06:37:44;;;;;;;;;;;;;;;6.58;100.00;100433.41;5003148;28;20000;-78
2023/10/15 06:40:10;;;;;;;;;;;;;;;6.64;100.00;100440.75;5021713;28;19929;-79
2023/10/15 06:42:35;;;;;;;;;;;;;;;6.39;100.00;100415.72;5006555;28;19917;-78
2023/10/15 06:45:02;;;;;;;;;;;;;;;6.59;100.00;100434.22;5007373;28;19971;-79
2023/10/15 06:47:28;;;;;;;;;;;;;;;6.75;100.00;100435.28;5005585;28;20008;-78
2023/10/15 06:49:53;;;;;;;;;;;;;;;6.83;100.00;100442.50;5006156;28;19984;-78
2023/10/15 06:52:19;;;;;;;;;;;;;;;6.98;100.00;100446.38;5006636;28;19937;-79
2023/10/15 06:54:44;;;;;;;;;;;;;;;6.90;100.00;100424.19;5004026;28;20390;-78
2023/10/15 06:57:09;;;;;;;;;;;;;;;6.98;100.00;100397.75;5024450;28;20563;-77
2023/10/15 06:59:34;;;;;;;;;;;;;;;6.99;100.00;100399.41;5003627;28;20352;-77
2023/10/15 07:02:00;;;;;;;;;;;;;;;6.78;100.00;100380.25;5009584;28;19913;-78
2023/10/15 07:04:27;;;;;;;;;;;;;;;6.89;100.00;100406.59;5004955;28;19956;-78
2023/10/15 07:06:52;;;;;;;;;;;;;;;7.11;100.00;100429.25;5004965;28;19957;-78
2023/10/15 07:09:18;;;;;;;;;;;;;;;7.56;100.00;100431.06;5005811;28;19949;-79
2023/10/15 07:11:43;;;;;;;;;;;;;;;7.85;100.00;100412.25;5020861;28;20060;-78
2023/10/15 07:14:09;;;;;;;;;;;;;;;8.15;100.00;100380.94;5006690;28;19967;-78
2023/10/15 07:16:34;;;;;;;;;;;;;;;8.52;100.00;100378.03;5003561;28;19925;-78
2023/10/15 07:19:01;;;;;;;;;;;;;;;8.31;100.00;100321.66;5006469;28;20460;-79
2023/10/15 07:21:26;;;;;;;;;;;;;;;8.78;100.00;100323.91;5006080;28;19909;-78
2023/10/15 07:23:53;;;;;;;;;;;;;;;8.43;100.00;100245.97;5007901;28;19917;-79
2023/10/15 07:26:18;;;;;;;;;;;;;;;8.07;100.00;100208.03;5004067;28;20450;-79
2023/10/15 07:28:43;;;;;;;;;;;;;;;8.42;100.00;100231.00;5005701;28;19968;-79
2023/10/15 07:31:08;;;;;;;;;;;;;;;8.62;100.00;100250.19;5020895;28;19924;-79
2023/10/15 07:33:34;;;;;;;;;;;;;;;8.84;100.00;100198.16;5006046;28;20016;-79
2023/10/15 07:36:01;;;;;;;;;;;;;;;8.95;100.00;100173.06;5005729;28;19917;-79
2023/10/15 07:38:27;;;;;;;;;;;;;;;9.12;100.00;100124.09;5017603;28;19917;-79
2023/10/15 07:40:53;;;;;;;;;;;;;;;9.38;100.00;100133.72;5006117;28;19914;-79
2023/10/15 07:43:18;;;;;;;;;;;;;;;9.79;100.00;100101.63;5003992;28;19909;-79
2023/10/15 07:45:44;;;;;;;;;;;;;;;10.34;100.00;100087.34;5006083;28;19965;-79
2023/10/15 07:48:09;;;;;;;;;;;;;;;9.64;100.00;99830.47;5005621;28;19921;-78
2023/10/15 07:50:35;;;;;;;;;;;;;;;10.39;100.00;99970.22;5001532;28;20322;-79
2023/10/15 07:53:01;;;;;;;;;;;;;;;10.60;100.00;99899.31;5009949;28;19920;-79
2023/10/15 07:55:26;;;;;;;;;;;;;;;11.05;100.00;99863.59;5005223;28;20000;-79
2023/10/15 07:57:52;;;;;;;;;;;;;;;10.85;100.00;99801.09;5019896;28;20421;-79
2023/10/15 08:00:23;;;;;;;;;;;;;;;11.98;100.00;99875.25;5003783;28;19949;-79
2023/10/15 08:02:52;;;;;;;;;;;;;;;10.97;100.00;99533.34;5007883;28;20345;-79
2023/10/15 08:05:24;;;;;;;;;;;;;;;10.37;100.00;99478.66;5006307;28;19913;-78
2023/10/15 08:07:50;;;;;;;;;;;;;;;10.72;100.00;99604.19;5003384;28;20399;-79
2023/10/15 08:10:17;;;;;;;;;;;;;;;11.36;100.00;99702.16;5007674;28;19913;-78
2023/10/15 08:12:43;;;;;;;;;;;;;;;10.45;100.00;99579.09;5003273;28;20007;-78
2023/10/15 08:15:08;;;;;;;;;;;;;;;10.59;100.00;99564.06;5005130;28;19973;-79
2023/10/15 08:17:34;;;;;;;;;;;;;;;11.71;100.00;99686.19;5004759;28;19917;-79
2023/10/15 08:19:59;;;;;;;;;;;;;;;11.98;100.00;99545.41;5004599;28;20042;-79
2023/10/15 08:22:28;;;;;;;;;;;;;;;12.19;100.00;99573.88;5004332;28;19953;-78
2023/10/15 08:24:53;;;;;;;;;;;;;;;12.52;100.00;99466.03;5003644;28;19913;-78
2023/10/15 08:27:19;;;;;;;;;;;;;;;12.97;100.00;99432.22;5003886;28;20266;-79
2023/10/15 08:29:44;;;;;;;;;;;;;;;13.18;100.00;99187.25;5003426;28;19918;-79
2023/10/15 08:32:16;;;;;;;;;;;;;;;14.07;100.00;99162.94;5020659;28;19913;-78
2023/10/15 08:34:45;;;;;;;;;;;;;;;13.64;100.00;98866.16;5002222;28;19914;-78
2023/10/15 08:37:10;;;;;;;;;;;;;;;14.74;100.00;99206.75;5006597;28;19920;-79
2023/10/15 08:39:38;;;;;;;;;;;;;;;14.13;100.00;98830.09;4999997;28;19914;-80
2023/10/15 08:42:03;;;;;;;;;;;;;;;14.44;100.00;98905.97;5002532;28;19948;-78
2023/10/15 08:44:29;;;;;;;;;;;;;;;12.97;100.00;98323.28;5002555;28;20440;-79
2023/10/15 08:46:57;;;;;;;;;;;;;;;13.25;100.00;98712.84;5003328;28;20447;-79
2023/10/15 08:49:24;;;;;;;;;;;;;;;14.53;100.00;99232.19;5006308;28;20090;-78
2023/10/15 08:51:50;;;;;;;;;;;;;;;14.13;100.00;98889.13;5002702;28;20535;-80
2023/10/15 08:54:17;;;;;;;;;;;;;;;14.60;100.00;99011.91;5007881;28;20511;-78
2023/10/15 08:56:43;;;;;;;;;;;;;;;14.82;100.00;98816.09;5003970;28;19913;-79
2023/10/15 08:59:10;;;;;;;;;;;;;;;14.51;100.00;98940.75;5003903;28;20722;-79
2023/10/15 09:01:36;;;;;;;;;;;;;;;15.23;100.00;98961.22;5001399;28;19960;-79
2023/10/15 09:04:04;;;;;;;;;;;;;;;15.19;100.00;98934.84;5005849;28;19913;-78
2023/10/15 09:06:30;;;;;;;;;;;;;;;13.97;99.67;98363.19;5002671;28;19924;-79
2023/10/15 09:08:55;;;;;;;;;;;;;;;13.09;100.00;98822.31;5003299;28;20316;-79
2023/10/15 09:11:21;;;;;;;;;;;;;;;12.82;100.00;98957.59;5003234;28;19913;-78
2023/10/15 09:13:49;;;;;;;;;;;;;;;13.82;100.00;99187.97;5002137;28;20250;-78
2023/10/15 09:16:15;;;;;;;;;;;;;;;13.61;100.00;98744.09;5001114;28;20253;-78
2023/10/15 09:18:40;;;;;;;;;;;;;;;14.39;100.00;99091.09;5003963;28;19923;-80
2023/10/15 09:21:05;;;;;;;;;;;;;;;13.94;99.36;98734.66;4990566;28;19966;-76
2023/10/15 09:23:38;;;;;;;;;;;;;;;13.78;100.00;98891.72;5002280;28;20399;-78
2023/10/15 09:26:06;;;;;;;;;;;;;;;14.67;98.92;98933.91;5001703;28;20279;-78
2023/10/15 09:28:32;;;;;;;;;;;;;;;14.10;100.00;98931.72;5002752;28;19945;-78
2023/10/15 09:31:09;;;;;;;;;;;;;;;14.36;96.67;98673.59;5002743;28;20043;-78
2023/10/15 09:33:34;;;;;;;;;;;;;;;14.15;96.68;98698.38;5000874;28;19991;-79
2023/10/15 09:36:02;;;;;;;;;;;;;;;14.21;99.03;98927.41;5003274;28;20368;-78
2023/10/15 09:38:28;;;;;;;;;;;;;;;13.85;100.00;99039.97;5016535;28;19959;-78
2023/10/15 09:40:56;;;;;;;;;;;;;;;12.48;100.00;98665.34;5016942;28;19977;-77
2023/10/15 09:43:25;;;;;;;;;;;;;;;11.40;100.00;98818.91;5000923;28;19913;-78
2023/10/15 09:45:54;;;;;;;;;;;;;;;10.98;100.00;99348.06;4999128;28;19909;-78
2023/10/15 09:48:22;;;;;;;;;;;;;;;10.98;100.00;99608.97;4999668;28;19971;-77
2023/10/15 09:50:48;;;;;;;;;;;;;;;10.72;100.00;99724.31;5001608;28;20373;-78
2023/10/15 09:53:16;;;;;;;;;;;;;;;10.35;100.00;99947.63;5000465;28;20106;-78
2023/10/15 09:55:42;;;;;;;;;;;;;;;10.94;100.00;100057.16;4999670;28;20381;-78
2023/10/15 09:58:11;;;;;;;;;;;;;;;11.19;100.00;100219.88;5004345;28;20004;-77
2023/10/15 10:03:38;;;;;;;;;;;;;;;12.31;100.00;99852.44;5004597;28;19927;-78
2023/10/15 10:06:09;;;;;;;;;;;;;;;12.21;100.00;99770.66;5019659;28;19917;-78
2023/10/15 10:08:38;;;;;;;;;;;;;;;11.57;100.00;99597.03;5003516;28;19922;-78
2023/10/15 10:11:12;;;;;;;;;;;;;;;12.10;100.00;99613.34;5012336;28;19916;-78
2023/10/15 10:13:56;;;;;;;;;;;;;;;11.46;100.00;99458.59;5002374;28;19957;-78
2023/10/15 10:16:30;;;;;;;;;;;;;;;10.90;100.00;99505.75;5000536;28;19913;-78
2023/10/15 10:18:56;;;;;;;;;;;;;;;10.64;100.00;99629.19;5002652;28;20396;-78
2023/10/15 10:21:26;;;;;;;;;;;;;;;11.57;100.00;99872.38;5001794;28;20043;-78
2023/10/15 10:23:53;;;;;;;;;;;;;;;11.88;100.00;99887.31;5004965;28;19971;-79
2023/10/15 10:26:19;;;;;;;;;;;;;;;12.24;100.00;99678.44;5004315;28;19910;-78
2023/10/15 10:28:45;;;;;;;;;;;;;;;11.87;100.00;99596.75;5004076;28;19921;-78
2023/10/15 10:31:11;;;;;;;;;;;;;;;12.88;100.00;99620.97;5005096;28;19913;-78
2023/10/15 10:33:44;;;;;;;;;;;;;;;12.61;100.00;99484.34;5004972;28;20292;-78
2023/10/15 10:36:12;;;;;;;;;;;;;;;12.80;100.00;99377.44;5002781;28;19917;-78
2023/10/15 10:38:41;;;;;;;;;;;;;;;13.02;100.00;99431.56;5000831;28;19910;-79
2023/10/15 10:41:13;;;;;;;;;;;;;;;14.01;100.00;99582.44;5005567;28;20122;-78
2023/10/15 10:43:42;;;;;;;;;;;;;;;13.92;100.00;99204.38;5002172;28;20189;-78
2023/10/15 10:46:07;;;;;;;;;;;;;;;14.88;100.00;99604.25;5004392;28;20340;-78
2023/10/15 10:48:33;;;;;;;;;;;;;;;14.71;100.00;99191.09;5001968;28;19956;-78
2023/10/15 10:51:08;;;;;;;;;;;;;;;14.32;100.00;98923.94;5004951;28;20405;-79
2023/10/15 10:53:33;;;;;;;;;;;;;;;13.05;100.00;98702.44;5004972;28;19913;-78
2023/10/15 10:56:05;;;;;;;;;;;;;;;14.08;100.00;99431.06;5003477;28;19914;-78
2023/10/15 10:58:31;;;;;;;;;;;;;;;13.57;100.00;99028.97;5001614;28;19913;-78
2023/10/15 11:00:57;;;;;;;;;;;;;;;14.76;100.00;99438.38;5002575;28;19965;-78
2023/10/15 11:03:22;;;;;;;;;;;;;;;14.56;99.66;99110.09;5003377;28;19910;-78
2023/10/15 11:05:48;;;;;;;;;;;;;;;15.78;100.00;99480.06;5001409;28;20001;-79
2023/10/15 11:08:19;;;;;;;;;;;;;;;15.78;96.45;99168.75;5005045;28;19913;-78
2023/10/15 11:10:47;;;;;;;;;;;;;;;15.94;96.10;99183.34;5002167;28;19965;-78
2023/10/15 11:13:13;;;;;;;;;;;;;;;15.89;91.13;98750.00;5019994;28;19914;-78
2023/10/15 11:15:39;;;;;;;;;;;;;;;16.01;90.58;98750.72;5004145;28;19914;-78
2023/10/15 11:18:08;;;;;;;;;;;;;;;14.99;92.55;98762.41;5002963;28;19952;-80
2023/10/15 11:20:35;;;;;;;;;;;;;;;14.41;91.02;98516.38;5000664;28;20748;-78
2023/10/15 11:23:01;;;;;;;;;;;;;;;14.31;94.78;98923.13;5003395;28;19913;-78
2023/10/15 11:25:27;;;;;;;;;;;;;;;14.52;95.50;99080.19;5002922;28;19917;-78
2023/10/15 11:27:52;;;;;;;;;;;;;;;14.29;96.63;99080.91;5003239;28;20009;-78
2023/10/15 11:30:18;;;;;;;;;;;;;;;13.89;96.52;98973.28;5004421;28;19921;-78
2023/10/15 11:32:44;;;;;;;;;;;;;;;13.15;96.90;98843.88;5000693;28;19987;-78
2023/10/15 11:35:15;;;;;;;;;;;;;;;12.29;94.51;98450.50;5021085;28;20343;-77
2023/10/15 11:37:40;;;;;;;;;;;;;;;12.39;93.27;98455.28;5002119;28;20362;-78
2023/10/15 11:40:10;;;;;;;;;;;;;;;12.14;90.51;98201.34;5018589;28;19966;-78
2023/10/15 11:42:43;;;;;;;;;;;;;;;12.26;86.48;97862.41;4997550;28;19914;-77
2023/10/15 11:45:16;;;;;;;;;;;;;;;12.20;85.40;97829.44;4997810;28;20904;-78
2023/10/15 11:47:44;;;;;;;;;;;;;;;12.82;85.07;98047.97;4998782;28;20181;-78
2023/10/15 11:50:12;;;;;;;;;;;;;;;13.49;83.12;98012.31;4997519;28;20039;-78
2023/10/15 11:52:44;;;;;;;;;;;;;;;12.59;81.52;97543.09;5001211;28;19952;-79
2023/10/15 11:55:16;;;;;;;;;;;;;;;13.42;83.72;98094.75;4999589;28;20008;-77
2023/10/15 11:57:42;;;;;;;;;;;;;;;12.85;83.59;97924.34;5001667;28;20770;-78
2023/10/15 12:00:09;;;;;;;;;;;;;;;13.31;83.03;98074.22;4998441;28;19916;-78
2023/10/15 12:02:34;;;;;;;;;;;;;;;13.45;83.18;98136.31;4998313;28;19921;-78
2023/10/15 12:05:01;;;;;;;;;;;;;;;14.18;81.76;98174.63;5000330;28;20269;-78
2023/10/15 12:07:28;;;;;;;;;;;;;;;14.91;80.00;98222.78;4999974;28;19956;-78
2023/10/15 12:09:53;;;;;;;;;;;;;;;13.94;82.36;98180.22;4997807;28;19909;-78
2023/10/15 12:12:18;;;;;;;;;;;;;;;13.38;79.27;97734.53;5000738;28;19928;-78
2023/10/15 12:14:44;;;;;;;;;;;;;;;14.19;79.81;98077.00;4998646;28;19926;-78
2023/10/15 12:17:12;;;;;;;;;;;;;;;14.35;77.82;97904.34;5008009;28;19913;-78
2023/10/15 12:19:38;;;;;;;;;;;;;;;14.24;76.68;97724.72;4997439;28;19914;-78
2023/10/15 12:22:03;;;;;;;;;;;;;;;14.72;76.50;97854.41;4999099;28;20281;-78
2023/10/15 12:24:28;;;;;;;;;;;;;;;14.90;75.40;97893.44;4996659;28;19929;-78
2023/10/15 12:26:54;;;;;;;;;;;;;;;15.19;74.84;97969.94;4998124;28;19917;-77
2023/10/15 12:29:28;;;;;;;;;;;;;;;15.40;75.45;98062.25;4998680;28;19971;-78
2023/10/15 12:31:55;;;;;;;;;;;;;;;15.87;73.88;98052.56;4998438;28;19920;-79
2023/10/15 12:34:21;;;;;;;;;;;;;;;15.88;74.00;98021.91;5001156;28;19956;-78
2023/10/15 12:36:46;;;;;;;;;;;;;;;16.35;74.21;98192.47;4999657;28;19913;-79
2023/10/15 12:39:11;;;;;;;;;;;;;;;14.75;73.72;97602.28;5008045;28;20208;-78
2023/10/15 12:41:38;;;;;;;;;;;;;;;15.13;73.98;97911.84;4996008;28;20300;-78
2023/10/15 12:44:09;;;;;;;;;;;;;;;13.94;73.23;97485.56;5000723;28;20467;-79
2023/10/15 12:46:35;;;;;;;;;;;;;;;14.07;72.88;97590.75;5004517;28;20481;-76
2023/10/15 12:49:03;;;;;;;;;;;;;;;13.88;73.34;97559.03;5000333;28;19910;-78
2023/10/15 12:51:28;;;;;;;;;;;;;;;13.41;76.20;97819.78;4998076;28;19945;-79
2023/10/15 12:53:53;;;;;;;;;;;;;;;12.91;77.87;97903.00;5007737;28;20525;-79
2023/10/15 12:56:18;;;;;;;;;;;;;;;12.32;81.75;98227.16;4999466;28;19916;-76